Terminal Aerodrome Forecast
Issued by NWS Charleston, WV

Home | Current Version | Previous Version | Text Only | Print | Product List | Glossary On
Versions: 1 2 3 4 5 6 7 8 9 10 11 12 13 14 15 16 17 18 19 20 21
000
FTUS41 KRLX 281100
TAFHTS
TAF
KHTS 281120Z 2812/2912 27004KT P6SM BKN035
      TEMPO 2812/2814 BKN025
     FM281700 26004KT P6SM BKN070
     FM290000 VRB03KT P6SM SCT080=

USA.gov is the U.S. government's official web portal to all federal, state and local government web resources and services.